sensor_id;sensor_type;location;lat;lon;timestamp;P1;durP1;ratioP1;P2;durP2;ratioP2
29026;SDS011;16120;48.608;9.092;2023-10-31T00:02:39;110.60;;;8.63;;
29026;SDS011;16120;48.608;9.092;2023-10-31T00:06:34;110.10;;;8.67;;
29026;SDS011;16120;48.608;9.092;2023-10-31T00:10:29;109.97;;;8.67;;
29026;SDS011;16120;48.608;9.092;2023-10-31T00:14:26;110.33;;;8.33;;
29026;SDS011;16120;48.608;9.092;2023-10-31T00:18:21;110.73;;;8.57;;
29026;SDS011;16120;48.608;9.092;2023-10-31T00:22:16;110.75;;;8.25;;
29026;SDS011;16120;48.608;9.092;2023-10-31T00:26:11;110.07;;;8.33;;
29026;SDS011;16120;48.608;9.092;2023-10-31T00:30:08;109.88;;;8.55;;
29026;SDS011;16120;48.608;9.092;2023-10-31T00:34:04;110.50;;;8.53;;
29026;SDS011;16120;48.608;9.092;2023-10-31T00:37:59;109.77;;;8.43;;
29026;SDS011;16120;48.608;9.092;2023-10-31T00:41:54;111.07;;;8.33;;
29026;SDS011;16120;48.608;9.092;2023-10-31T00:45:51;110.50;;;8.60;;
29026;SDS011;16120;48.608;9.092;2023-10-31T00:49:46;110.50;;;8.23;;
29026;SDS011;16120;48.608;9.092;2023-10-31T00:53:41;110.67;;;8.60;;
29026;SDS011;16120;48.608;9.092;2023-10-31T00:57:37;111.30;;;8.67;;
29026;SDS011;16120;48.608;9.092;2023-10-31T01:01:33;111.17;;;8.67;;
29026;SDS011;16120;48.608;9.092;2023-10-31T01:05:29;111.03;;;8.63;;
29026;SDS011;16120;48.608;9.092;2023-10-31T01:09:24;110.40;;;8.20;;
29026;SDS011;16120;48.608;9.092;2023-10-31T01:13:19;110.50;;;8.70;;
29026;SDS011;16120;48.608;9.092;2023-10-31T01:17:15;109.97;;;8.27;;
29026;SDS011;16120;48.608;9.092;2023-10-31T01:21:11;110.70;;;8.50;;
29026;SDS011;16120;48.608;9.092;2023-10-31T01:25:06;111.50;;;8.43;;
29026;SDS011;16120;48.608;9.092;2023-10-31T01:29:01;110.80;;;8.23;;
29026;SDS011;16120;48.608;9.092;2023-10-31T01:32:58;110.13;;;8.17;;
29026;SDS011;16120;48.608;9.092;2023-10-31T01:36:53;111.57;;;7.97;;
29026;SDS011;16120;48.608;9.092;2023-10-31T01:40:48;111.10;;;8.23;;
29026;SDS011;16120;48.608;9.092;2023-10-31T01:44:43;110.40;;;7.77;;
29026;SDS011;16120;48.608;9.092;2023-10-31T01:48:40;110.53;;;8.10;;
29026;SDS011;16120;48.608;9.092;2023-10-31T01:52:36;111.23;;;7.87;;
29026;SDS011;16120;48.608;9.092;2023-10-31T01:56:31;111.37;;;7.90;;
29026;SDS011;16120;48.608;9.092;2023-10-31T02:00:26;110.67;;;7.97;;
29026;SDS011;16120;48.608;9.092;2023-10-31T02:04:23;110.40;;;8.23;;
29026;SDS011;16120;48.608;9.092;2023-10-31T02:08:18;111.57;;;7.90;;
29026;SDS011;16120;48.608;9.092;2023-10-31T02:16:24;111.10;;;8.13;;
29026;SDS011;16120;48.608;9.092;2023-10-31T02:20:20;111.53;;;8.07;;
29026;SDS011;16120;48.608;9.092;2023-10-31T02:24:17;111.33;;;8.07;;
29026;SDS011;16120;48.608;9.092;2023-10-31T02:28:12;111.23;;;8.07;;
29026;SDS011;16120;48.608;9.092;2023-10-31T02:32:07;111.33;;;7.97;;
29026;SDS011;16120;48.608;9.092;2023-10-31T02:36:03;111.70;;;8.00;;
29026;SDS011;16120;48.608;9.092;2023-10-31T02:40:00;111.67;;;8.17;;
29026;SDS011;16120;48.608;9.092;2023-10-31T02:43:55;111.10;;;7.93;;
29026;SDS011;16120;48.608;9.092;2023-10-31T02:47:50;111.90;;;8.20;;
29026;SDS011;16120;48.608;9.092;2023-10-31T02:51:45;111.40;;;7.90;;
29026;SDS011;16120;48.608;9.092;2023-10-31T02:55:42;111.70;;;8.67;;
29026;SDS011;16120;48.608;9.092;2023-10-31T02:59:37;111.50;;;8.10;;
29026;SDS011;16120;48.608;9.092;2023-10-31T03:03:32;112.07;;;8.03;;
29026;SDS011;16120;48.608;9.092;2023-10-31T03:07:28;111.40;;;8.10;;
29026;SDS011;16120;48.608;9.092;2023-10-31T03:11:24;111.20;;;7.97;;
29026;SDS011;16120;48.608;9.092;2023-10-31T03:15:20;111.27;;;8.07;;
29026;SDS011;16120;48.608;9.092;2023-10-31T03:19:15;110.77;;;7.97;;
29026;SDS011;16120;48.608;9.092;2023-10-31T03:23:10;111.30;;;8.03;;
29026;SDS011;16120;48.608;9.092;2023-10-31T03:27:07;111.40;;;8.27;;
29026;SDS011;16120;48.608;9.092;2023-10-31T03:31:02;111.60;;;8.33;;
29026;SDS011;16120;48.608;9.092;2023-10-31T03:34:58;111.50;;;8.20;;
29026;SDS011;16120;48.608;9.092;2023-10-31T03:38:53;111.40;;;8.27;;
29026;SDS011;16120;48.608;9.092;2023-10-31T03:42:49;110.78;;;8.20;;
29026;SDS011;16120;48.608;9.092;2023-10-31T03:46:45;111.87;;;8.33;;
29026;SDS011;16120;48.608;9.092;2023-10-31T03:50:40;111.40;;;8.20;;
29026;SDS011;16120;48.608;9.092;2023-10-31T03:54:35;111.50;;;8.17;;
29026;SDS011;16120;48.608;9.092;2023-10-31T03:58:32;111.90;;;8.70;;
29026;SDS011;16120;48.608;9.092;2023-10-31T04:02:27;111.97;;;8.20;;
29026;SDS011;16120;48.608;9.092;2023-10-31T04:06:22;112.17;;;8.13;;
29026;SDS011;16120;48.608;9.092;2023-10-31T04:10:17;111.67;;;8.00;;
29026;SDS011;16120;48.608;9.092;2023-10-31T04:14:14;112.67;;;8.10;;
29026;SDS011;16120;48.608;9.092;2023-10-31T04:18:09;111.40;;;8.10;;
29026;SDS011;16120;48.608;9.092;2023-10-31T04:22:04;111.50;;;8.10;;
29026;SDS011;16120;48.608;9.092;2023-10-31T04:26:00;111.97;;;7.93;;
29026;SDS011;16120;48.608;9.092;2023-10-31T04:29:56;111.60;;;7.90;;
29026;SDS011;16120;48.608;9.092;2023-10-31T04:33:51;112.37;;;8.00;;
29026;SDS011;16120;48.608;9.092;2023-10-31T04:37:46;110.80;;;8.00;;
29026;SDS011;16120;48.608;9.092;2023-10-31T04:41:42;111.87;;;7.90;;
29026;SDS011;16120;48.608;9.092;2023-10-31T04:45:38;112.20;;;7.97;;
29026;SDS011;16120;48.608;9.092;2023-10-31T04:49:34;111.80;;;7.90;;
29026;SDS011;16120;48.608;9.092;2023-10-31T04:53:29;111.80;;;8.43;;
29026;SDS011;16120;48.608;9.092;2023-10-31T04:57:24;111.90;;;8.10;;
29026;SDS011;16120;48.608;9.092;2023-10-31T05:01:21;111.47;;;8.17;;
29026;SDS011;16120;48.608;9.092;2023-10-31T05:05:16;112.20;;;8.20;;
29026;SDS011;16120;48.608;9.092;2023-10-31T05:09:14;112.20;;;8.10;;
29026;SDS011;16120;48.608;9.092;2023-10-31T05:13:10;112.70;;;8.23;;
29026;SDS011;16120;48.608;9.092;2023-10-31T05:17:06;111.67;;;8.03;;
29026;SDS011;16120;48.608;9.092;2023-10-31T05:21:02;112.07;;;7.87;;
29026;SDS011;16120;48.608;9.092;2023-10-31T05:24:57;112.70;;;8.30;;
29026;SDS011;16120;48.608;9.092;2023-10-31T05:28:52;112.07;;;8.20;;
29026;SDS011;16120;48.608;9.092;2023-10-31T05:32:49;111.17;;;8.23;;
29026;SDS011;16120;48.608;9.092;2023-10-31T05:36:44;112.37;;;8.20;;
29026;SDS011;16120;48.608;9.092;2023-10-31T05:40:39;111.63;;;8.20;;
29026;SDS011;16120;48.608;9.092;2023-10-31T05:44:35;112.72;;;8.23;;
29026;SDS011;16120;48.608;9.092;2023-10-31T05:48:31;112.07;;;8.23;;
29026;SDS011;16120;48.608;9.092;2023-10-31T05:52:27;112.00;;;8.13;;
29026;SDS011;16120;48.608;9.092;2023-10-31T05:56:22;112.37;;;8.27;;
29026;SDS011;16120;48.608;9.092;2023-10-31T06:00:18;112.57;;;8.13;;
29026;SDS011;16120;48.608;9.092;2023-10-31T06:04:14;111.93;;;7.87;;
29026;SDS011;16120;48.608;9.092;2023-10-31T06:08:10;111.67;;;8.13;;
29026;SDS011;16120;48.608;9.092;2023-10-31T06:12:05;111.90;;;8.17;;
29026;SDS011;16120;48.608;9.092;2023-10-31T06:16:00;112.40;;;8.17;;
29026;SDS011;16120;48.608;9.092;2023-10-31T06:19:57;112.30;;;7.90;;
29026;SDS011;16120;48.608;9.092;2023-10-31T06:23:52;112.60;;;8.30;;
29026;SDS011;16120;48.608;9.092;2023-10-31T06:27:47;112.00;;;8.17;;
29026;SDS011;16120;48.608;9.092;2023-10-31T06:31:42;112.33;;;8.27;;
29026;SDS011;16120;48.608;9.092;2023-10-31T06:35:39;112.87;;;8.33;;
29026;SDS011;16120;48.608;9.092;2023-10-31T06:39:34;112.67;;;8.47;;
29026;SDS011;16120;48.608;9.092;2023-10-31T06:43:29;112.67;;;8.47;;
29026;SDS011;16120;48.608;9.092;2023-10-31T06:47:24;112.33;;;8.30;;
29026;SDS011;16120;48.608;9.092;2023-10-31T06:51:21;112.20;;;8.27;;
29026;SDS011;16120;48.608;9.092;2023-10-31T06:55:16;112.60;;;8.50;;
29026;SDS011;16120;48.608;9.092;2023-10-31T06:59:11;111.90;;;8.17;;
29026;SDS011;16120;48.608;9.092;2023-10-31T07:03:06;111.90;;;8.23;;
29026;SDS011;16120;48.608;9.092;2023-10-31T07:07:03;112.47;;;8.47;;
29026;SDS011;16120;48.608;9.092;2023-10-31T07:10:58;112.30;;;8.20;;
29026;SDS011;16120;48.608;9.092;2023-10-31T07:14:53;111.90;;;8.10;;
29026;SDS011;16120;48.608;9.092;2023-10-31T07:18:49;116.55;;;8.40;;
29026;SDS011;16120;48.608;9.092;2023-10-31T07:22:45;112.23;;;8.40;;
29026;SDS011;16120;48.608;9.092;2023-10-31T07:26:40;112.07;;;8.27;;
29026;SDS011;16120;48.608;9.092;2023-10-31T07:30:36;111.97;;;8.10;;
29026;SDS011;16120;48.608;9.092;2023-10-31T07:34:31;112.67;;;8.20;;
29026;SDS011;16120;48.608;9.092;2023-10-31T07:38:27;111.70;;;7.80;;
29026;SDS011;16120;48.608;9.092;2023-10-31T07:42:23;112.00;;;8.13;;
29026;SDS011;16120;48.608;9.092;2023-10-31T07:46:18;111.70;;;8.47;;
29026;SDS011;16120;48.608;9.092;2023-10-31T07:50:13;111.40;;;8.03;;
29026;SDS011;16120;48.608;9.092;2023-10-31T07:54:10;111.37;;;8.17;;
29026;SDS011;16120;48.608;9.092;2023-10-31T07:58:05;112.10;;;8.60;;
29026;SDS011;16120;48.608;9.092;2023-10-31T08:02:00;111.20;;;8.27;;
29026;SDS011;16120;48.608;9.092;2023-10-31T08:05:55;111.70;;;8.10;;
29026;SDS011;16120;48.608;9.092;2023-10-31T08:09:52;111.60;;;8.07;;
29026;SDS011;16120;48.608;9.092;2023-10-31T08:13:47;111.57;;;8.40;;
29026;SDS011;16120;48.608;9.092;2023-10-31T08:17:42;111.90;;;8.67;;
29026;SDS011;16120;48.608;9.092;2023-10-31T08:21:38;111.60;;;8.37;;
29026;SDS011;16120;48.608;9.092;2023-10-31T08:25:34;110.90;;;8.57;;
29026;SDS011;16120;48.608;9.092;2023-10-31T08:29:29;111.37;;;8.50;;
29026;SDS011;16120;48.608;9.092;2023-10-31T08:33:24;111.87;;;8.90;;
29026;SDS011;16120;48.608;9.092;2023-10-31T08:37:20;112.13;;;8.40;;
29026;SDS011;16120;48.608;9.092;2023-10-31T08:41:16;110.50;;;8.37;;
29026;SDS011;16120;48.608;9.092;2023-10-31T08:45:11;111.83;;;8.67;;
29026;SDS011;16120;48.608;9.092;2023-10-31T08:49:07;110.80;;;8.17;;
29026;SDS011;16120;48.608;9.092;2023-10-31T08:53:02;111.63;;;8.05;;
29026;SDS011;16120;48.608;9.092;2023-10-31T08:56:58;110.77;;;8.20;;
29026;SDS011;16120;48.608;9.092;2023-10-31T09:00:54;110.27;;;8.27;;
29026;SDS011;16120;48.608;9.092;2023-10-31T09:04:49;110.90;;;8.20;;
29026;SDS011;16120;48.608;9.092;2023-10-31T09:08:44;110.80;;;8.10;;
29026;SDS011;16120;48.608;9.092;2023-10-31T09:12:41;110.80;;;8.30;;
29026;SDS011;16120;48.608;9.092;2023-10-31T09:16:36;110.87;;;8.47;;
29026;SDS011;16120;48.608;9.092;2023-10-31T09:20:31;109.37;;;8.47;;
29026;SDS011;16120;48.608;9.092;2023-10-31T09:24:26;110.17;;;8.43;;
29026;SDS011;16120;48.608;9.092;2023-10-31T09:28:23;110.57;;;8.40;;
29026;SDS011;16120;48.608;9.092;2023-10-31T09:32:18;109.87;;;8.40;;
29026;SDS011;16120;48.608;9.092;2023-10-31T09:36:13;110.77;;;8.67;;
29026;SDS011;16120;48.608;9.092;2023-10-31T09:40:09;111.03;;;8.83;;
29026;SDS011;16120;48.608;9.092;2023-10-31T09:44:06;110.00;;;8.37;;
29026;SDS011;16120;48.608;9.092;2023-10-31T09:48:01;110.67;;;8.80;;
29026;SDS011;16120;48.608;9.092;2023-10-31T09:51:56;110.07;;;8.77;;
29026;SDS011;16120;48.608;9.092;2023-10-31T09:55:52;110.90;;;8.80;;
29026;SDS011;16120;48.608;9.092;2023-10-31T09:59:49;110.90;;;8.87;;
29026;SDS011;16120;48.608;9.092;2023-10-31T10:03:44;109.80;;;8.73;;
29026;SDS011;16120;48.608;9.092;2023-10-31T10:07:40;110.07;;;9.13;;
29026;SDS011;16120;48.608;9.092;2023-10-31T10:11:36;110.90;;;8.83;;
29026;SDS011;16120;48.608;9.092;2023-10-31T10:15:43;109.70;;;8.50;;
29026;SDS011;16120;48.608;9.092;2023-10-31T10:19:39;110.53;;;9.17;;
29026;SDS011;16120;48.608;9.092;2023-10-31T10:23:34;110.27;;;9.20;;
29026;SDS011;16120;48.608;9.092;2023-10-31T10:27:29;110.07;;;8.80;;
29026;SDS011;16120;48.608;9.092;2023-10-31T10:31:26;110.57;;;8.73;;
29026;SDS011;16120;48.608;9.092;2023-10-31T10:35:21;111.00;;;8.80;;
29026;SDS011;16120;48.608;9.092;2023-10-31T10:39:18;110.70;;;8.83;;
29026;SDS011;16120;48.608;9.092;2023-10-31T10:43:16;109.47;;;8.33;;
29026;SDS011;16120;48.608;9.092;2023-10-31T10:47:14;109.70;;;8.53;;
29026;SDS011;16120;48.608;9.092;2023-10-31T10:51:12;110.73;;;8.63;;
29026;SDS011;16120;48.608;9.092;2023-10-31T10:55:11;110.00;;;8.83;;
29026;SDS011;16120;48.608;9.092;2023-10-31T10:59:07;110.30;;;8.67;;
29026;SDS011;16120;48.608;9.092;2023-10-31T11:03:04;110.40;;;8.70;;
29026;SDS011;16120;48.608;9.092;2023-10-31T11:07:01;110.20;;;8.80;;
29026;SDS011;16120;48.608;9.092;2023-10-31T11:10:56;110.67;;;9.07;;
29026;SDS011;16120;48.608;9.092;2023-10-31T11:14:52;109.70;;;8.33;;
29026;SDS011;16120;48.608;9.092;2023-10-31T11:18:49;109.07;;;8.40;;
29026;SDS011;16120;48.608;9.092;2023-10-31T11:22:44;109.30;;;8.30;;
29026;SDS011;16120;48.608;9.092;2023-10-31T11:26:40;109.97;;;8.40;;
29026;SDS011;16120;48.608;9.092;2023-10-31T11:30:45;109.43;;;8.27;;
29026;SDS011;16120;48.608;9.092;2023-10-31T11:34:44;109.43;;;8.57;;
29026;SDS011;16120;48.608;9.092;2023-10-31T11:38:39;109.90;;;8.40;;
29026;SDS011;16120;48.608;9.092;2023-10-31T11:42:34;109.30;;;8.60;;
29026;SDS011;16120;48.608;9.092;2023-10-31T11:46:31;109.07;;;8.80;;
29026;SDS011;16120;48.608;9.092;2023-10-31T11:50:27;109.20;;;8.77;;
29026;SDS011;16120;48.608;9.092;2023-10-31T11:54:22;109.70;;;8.70;;
29026;SDS011;16120;48.608;9.092;2023-10-31T11:58:18;108.93;;;8.60;;
29026;SDS011;16120;48.608;9.092;2023-10-31T12:02:13;108.97;;;8.40;;
29026;SDS011;16120;48.608;9.092;2023-10-31T12:06:10;108.67;;;8.37;;
29026;SDS011;16120;48.608;9.092;2023-10-31T12:10:06;109.80;;;8.70;;
29026;SDS011;16120;48.608;9.092;2023-10-31T12:14:02;108.40;;;8.50;;
29026;SDS011;16120;48.608;9.092;2023-10-31T12:17:58;109.63;;;8.93;;
29026;SDS011;16120;48.608;9.092;2023-10-31T12:21:54;109.10;;;8.50;;
29026;SDS011;16120;48.608;9.092;2023-10-31T12:25:49;109.57;;;8.77;;
29026;SDS011;16120;48.608;9.092;2023-10-31T12:29:45;109.40;;;8.80;;
29026;SDS011;16120;48.608;9.092;2023-10-31T12:33:40;109.47;;;8.77;;
29026;SDS011;16120;48.608;9.092;2023-10-31T12:37:37;109.13;;;9.13;;
29026;SDS011;16120;48.608;9.092;2023-10-31T12:41:32;109.30;;;8.57;;
29026;SDS011;16120;48.608;9.092;2023-10-31T12:45:28;109.03;;;8.43;;
29026;SDS011;16120;48.608;9.092;2023-10-31T12:49:23;109.20;;;8.37;;
29026;SDS011;16120;48.608;9.092;2023-10-31T12:53:24;109.77;;;8.97;;
29026;SDS011;16120;48.608;9.092;2023-10-31T12:57:19;109.67;;;8.47;;
29026;SDS011;16120;48.608;9.092;2023-10-31T13:01:14;109.17;;;8.67;;
29026;SDS011;16120;48.608;9.092;2023-10-31T13:05:12;108.27;;;8.60;;
29026;SDS011;16120;48.608;9.092;2023-10-31T13:09:11;108.60;;;8.43;;
29026;SDS011;16120;48.608;9.092;2023-10-31T13:13:06;109.50;;;9.20;;
29026;SDS011;16120;48.608;9.092;2023-10-31T13:17:01;109.00;;;8.60;;
29026;SDS011;16120;48.608;9.092;2023-10-31T13:20:57;108.27;;;8.90;;
29026;SDS011;16120;48.608;9.092;2023-10-31T13:24:53;109.70;;;8.80;;
29026;SDS011;16120;48.608;9.092;2023-10-31T13:28:48;109.00;;;8.27;;
29026;SDS011;16120;48.608;9.092;2023-10-31T13:32:44;109.17;;;8.47;;
29026;SDS011;16120;48.608;9.092;2023-10-31T13:36:39;108.47;;;8.50;;
29026;SDS011;16120;48.608;9.092;2023-10-31T13:40:36;108.87;;;8.87;;
29026;SDS011;16120;48.608;9.092;2023-10-31T13:44:31;109.57;;;8.87;;
29026;SDS011;16120;48.608;9.092;2023-10-31T13:48:26;108.30;;;8.90;;
29026;SDS011;16120;48.608;9.092;2023-10-31T13:52:21;107.90;;;8.63;;
29026;SDS011;16120;48.608;9.092;2023-10-31T13:56:18;108.97;;;8.30;;
29026;SDS011;16120;48.608;9.092;2023-10-31T14:00:13;108.27;;;8.57;;
29026;SDS011;16120;48.608;9.092;2023-10-31T14:04:09;109.07;;;8.67;;
29026;SDS011;16120;48.608;9.092;2023-10-31T14:08:04;108.40;;;8.40;;
29026;SDS011;16120;48.608;9.092;2023-10-31T14:12:01;107.73;;;8.50;;
29026;SDS011;16120;48.608;9.092;2023-10-31T14:15:56;108.60;;;8.90;;
29026;SDS011;16120;48.608;9.092;2023-10-31T14:19:51;108.77;;;8.50;;
29026;SDS011;16120;48.608;9.092;2023-10-31T14:23:46;108.20;;;8.90;;
29026;SDS011;16120;48.608;9.092;2023-10-31T14:27:43;109.10;;;8.50;;
29026;SDS011;16120;48.608;9.092;2023-10-31T14:31:39;109.53;;;8.60;;
29026;SDS011;16120;48.608;9.092;2023-10-31T14:35:34;108.70;;;8.53;;
29026;SDS011;16120;48.608;9.092;2023-10-31T14:39:29;109.00;;;8.60;;
29026;SDS011;16120;48.608;9.092;2023-10-31T14:43:26;109.80;;;8.60;;
29026;SDS011;16120;48.608;9.092;2023-10-31T14:47:21;108.47;;;8.60;;
29026;SDS011;16120;48.608;9.092;2023-10-31T14:51:16;109.20;;;8.60;;
29026;SDS011;16120;48.608;9.092;2023-10-31T14:55:11;109.20;;;8.60;;
29026;SDS011;16120;48.608;9.092;2023-10-31T14:59:08;109.13;;;9.00;;
29026;SDS011;16120;48.608;9.092;2023-10-31T15:03:03;109.80;;;8.90;;
29026;SDS011;16120;48.608;9.092;2023-10-31T15:06:58;108.70;;;8.40;;
29026;SDS011;16120;48.608;9.092;2023-10-31T15:10:54;109.27;;;8.37;;
29026;SDS011;16120;48.608;9.092;2023-10-31T15:14:50;108.47;;;8.53;;
29026;SDS011;16120;48.608;9.092;2023-10-31T15:18:45;109.20;;;8.53;;
29026;SDS011;16120;48.608;9.092;2023-10-31T15:22:41;109.20;;;8.37;;
29026;SDS011;16120;48.608;9.092;2023-10-31T15:26:36;109.47;;;8.23;;
29026;SDS011;16120;48.608;9.092;2023-10-31T15:30:32;109.27;;;8.47;;
29026;SDS011;16120;48.608;9.092;2023-10-31T15:34:28;109.40;;;8.53;;
29026;SDS011;16120;48.608;9.092;2023-10-31T15:38:23;109.50;;;8.50;;
29026;SDS011;16120;48.608;9.092;2023-10-31T15:42:18;109.80;;;8.63;;
29026;SDS011;16120;48.608;9.092;2023-10-31T15:46:15;109.60;;;8.23;;
29026;SDS011;16120;48.608;9.092;2023-10-31T15:50:10;108.80;;;8.33;;
29026;SDS011;16120;48.608;9.092;2023-10-31T15:54:05;109.70;;;8.20;;
29026;SDS011;16120;48.608;9.092;2023-10-31T15:58:00;109.57;;;8.10;;
29026;SDS011;16120;48.608;9.092;2023-10-31T16:01:57;109.63;;;8.27;;
29026;SDS011;16120;48.608;9.092;2023-10-31T16:05:52;110.63;;;8.40;;
29026;SDS011;16120;48.608;9.092;2023-10-31T16:09:47;109.80;;;8.30;;
29026;SDS011;16120;48.608;9.092;2023-10-31T16:13:43;109.90;;;8.60;;
29026;SDS011;16120;48.608;9.092;2023-10-31T16:17:39;109.27;;;8.30;;
29026;SDS011;16120;48.608;9.092;2023-10-31T16:21:34;109.17;;;8.20;;
29026;SDS011;16120;48.608;9.092;2023-10-31T16:25:30;109.37;;;8.70;;
29026;SDS011;16120;48.608;9.092;2023-10-31T16:29:25;110.30;;;8.63;;
29026;SDS011;16120;48.608;9.092;2023-10-31T16:33:21;110.67;;;8.60;;
29026;SDS011;16120;48.608;9.092;2023-10-31T16:37:16;110.30;;;8.40;;
29026;SDS011;16120;48.608;9.092;2023-10-31T16:41:12;110.03;;;8.63;;
29026;SDS011;16120;48.608;9.092;2023-10-31T16:45:08;110.07;;;8.37;;
29026;SDS011;16120;48.608;9.092;2023-10-31T16:49:05;110.57;;;9.17;;
29026;SDS011;16120;48.608;9.092;2023-10-31T16:53:01;110.40;;;8.47;;
29026;SDS011;16120;48.608;9.092;2023-10-31T16:56:56;111.17;;;8.33;;
29026;SDS011;16120;48.608;9.092;2023-10-31T17:00:51;110.60;;;8.33;;
29026;SDS011;16120;48.608;9.092;2023-10-31T17:04:48;111.17;;;8.57;;
29026;SDS011;16120;48.608;9.092;2023-10-31T17:08:43;111.07;;;8.43;;
29026;SDS011;16120;48.608;9.092;2023-10-31T17:12:38;110.82;;;8.35;;
29026;SDS011;16120;48.608;9.092;2023-10-31T17:16:34;110.20;;;8.20;;
29026;SDS011;16120;48.608;9.092;2023-10-31T17:20:30;110.93;;;7.93;;
29026;SDS011;16120;48.608;9.092;2023-10-31T17:24:25;110.90;;;8.20;;
29026;SDS011;16120;48.608;9.092;2023-10-31T17:28:21;110.50;;;8.50;;
29026;SDS011;16120;48.608;9.092;2023-10-31T17:32:16;110.27;;;8.20;;
29026;SDS011;16120;48.608;9.092;2023-10-31T17:36:12;110.97;;;8.27;;
29026;SDS011;16120;48.608;9.092;2023-10-31T17:40:08;111.17;;;8.17;;
29026;SDS011;16120;48.608;9.092;2023-10-31T17:44:03;110.70;;;8.13;;
29026;SDS011;16120;48.608;9.092;2023-10-31T17:47:58;110.43;;;7.97;;
29026;SDS011;16120;48.608;9.092;2023-10-31T17:51:55;110.50;;;8.43;;
29026;SDS011;16120;48.608;9.092;2023-10-31T17:55:50;111.03;;;8.10;;
29026;SDS011;16120;48.608;9.092;2023-10-31T17:59:45;110.30;;;7.90;;
29026;SDS011;16120;48.608;9.092;2023-10-31T18:03:41;110.53;;;7.97;;
29026;SDS011;16120;48.608;9.092;2023-10-31T18:07:37;110.70;;;8.00;;
29026;SDS011;16120;48.608;9.092;2023-10-31T18:11:32;109.77;;;8.17;;
29026;SDS011;16120;48.608;9.092;2023-10-31T18:15:28;111.43;;;7.77;;
29026;SDS011;16120;48.608;9.092;2023-10-31T18:19:23;110.63;;;8.00;;
29026;SDS011;16120;48.608;9.092;2023-10-31T18:23:19;110.47;;;8.10;;
29026;SDS011;16120;48.608;9.092;2023-10-31T18:27:15;110.90;;;8.10;;
29026;SDS011;16120;48.608;9.092;2023-10-31T18:31:10;109.97;;;7.90;;
29026;SDS011;16120;48.608;9.092;2023-10-31T18:35:05;110.30;;;7.80;;
29026;SDS011;16120;48.608;9.092;2023-10-31T18:39:02;110.07;;;7.83;;
29026;SDS011;16120;48.608;9.092;2023-10-31T18:42:57;110.87;;;8.07;;
29026;SDS011;16120;48.608;9.092;2023-10-31T18:46:52;110.53;;;8.10;;
29026;SDS011;16120;48.608;9.092;2023-10-31T18:50:47;110.33;;;7.87;;
29026;SDS011;16120;48.608;9.092;2023-10-31T18:54:44;110.97;;;8.00;;
29026;SDS011;16120;48.608;9.092;2023-10-31T18:58:39;111.37;;;7.63;;
29026;SDS011;16120;48.608;9.092;2023-10-31T19:02:34;110.53;;;8.10;;
29026;SDS011;16120;48.608;9.092;2023-10-31T19:06:30;110.50;;;8.03;;
29026;SDS011;16120;48.608;9.092;2023-10-31T19:10:26;110.70;;;8.53;;
29026;SDS011;16120;48.608;9.092;2023-10-31T19:14:21;110.37;;;8.07;;
29026;SDS011;16120;48.608;9.092;2023-10-31T19:18:17;111.37;;;8.33;;
29026;SDS011;16120;48.608;9.092;2023-10-31T19:22:12;110.13;;;8.10;;
29026;SDS011;16120;48.608;9.092;2023-10-31T19:26:08;110.67;;;8.00;;
29026;SDS011;16120;48.608;9.092;2023-10-31T19:30:04;110.90;;;8.10;;
29026;SDS011;16120;48.608;9.092;2023-10-31T19:33:59;110.70;;;7.77;;
29026;SDS011;16120;48.608;9.092;2023-10-31T19:37:54;110.60;;;7.83;;
29026;SDS011;16120;48.608;9.092;2023-10-31T19:41:52;110.93;;;7.70;;
29026;SDS011;16120;48.608;9.092;2023-10-31T19:45:47;109.67;;;7.57;;
29026;SDS011;16120;48.608;9.092;2023-10-31T19:49:43;111.47;;;8.00;;
29026;SDS011;16120;48.608;9.092;2023-10-31T19:53:38;110.70;;;8.00;;
29026;SDS011;16120;48.608;9.092;2023-10-31T19:57:34;110.70;;;7.88;;
29026;SDS011;16120;48.608;9.092;2023-10-31T20:01:30;110.20;;;7.80;;
29026;SDS011;16120;48.608;9.092;2023-10-31T20:05:25;110.80;;;8.18;;
29026;SDS011;16120;48.608;9.092;2023-10-31T20:09:20;110.60;;;7.87;;
29026;SDS011;16120;48.608;9.092;2023-10-31T20:13:17;111.90;;;8.60;;
29026;SDS011;16120;48.608;9.092;2023-10-31T20:17:12;111.30;;;8.07;;
29026;SDS011;16120;48.608;9.092;2023-10-31T20:21:07;111.97;;;8.23;;
29026;SDS011;16120;48.608;9.092;2023-10-31T20:25:02;111.50;;;8.27;;
29026;SDS011;16120;48.608;9.092;2023-10-31T20:28:59;111.00;;;8.40;;
29026;SDS011;16120;48.608;9.092;2023-10-31T20:32:54;111.37;;;7.87;;
29026;SDS011;16120;48.608;9.092;2023-10-31T20:36:50;110.90;;;7.93;;
29026;SDS011;16120;48.608;9.092;2023-10-31T20:40:45;111.00;;;7.93;;
29026;SDS011;16120;48.608;9.092;2023-10-31T20:44:41;110.60;;;8.00;;
29026;SDS011;16120;48.608;9.092;2023-10-31T20:48:37;111.70;;;8.30;;
29026;SDS011;16120;48.608;9.092;2023-10-31T20:52:32;111.37;;;8.20;;
29026;SDS011;16120;48.608;9.092;2023-10-31T20:56:27;111.37;;;8.10;;
29026;SDS011;16120;48.608;9.092;2023-10-31T21:00:24;111.77;;;8.27;;
29026;SDS011;16120;48.608;9.092;2023-10-31T21:04:19;111.97;;;8.37;;
29026;SDS011;16120;48.608;9.092;2023-10-31T21:08:14;111.57;;;8.07;;
29026;SDS011;16120;48.608;9.092;2023-10-31T21:12:09;111.50;;;8.15;;
29026;SDS011;16120;48.608;9.092;2023-10-31T21:16:06;111.30;;;8.13;;
29026;SDS011;16120;48.608;9.092;2023-10-31T21:20:02;111.60;;;8.17;;
29026;SDS011;16120;48.608;9.092;2023-10-31T21:23:57;111.40;;;8.33;;
29026;SDS011;16120;48.608;9.092;2023-10-31T21:27:52;111.82;;;8.07;;
29026;SDS011;16120;48.608;9.092;2023-10-31T21:31:49;111.70;;;8.23;;
29026;SDS011;16120;48.608;9.092;2023-10-31T21:35:44;111.40;;;8.13;;
29026;SDS011;16120;48.608;9.092;2023-10-31T21:39:39;111.93;;;8.10;;
29026;SDS011;16120;48.608;9.092;2023-10-31T21:43:34;112.18;;;8.30;;
29026;SDS011;16120;48.608;9.092;2023-10-31T21:47:31;110.57;;;7.93;;
29026;SDS011;16120;48.608;9.092;2023-10-31T21:51:26;112.07;;;8.20;;
29026;SDS011;16120;48.608;9.092;2023-10-31T21:55:21;112.00;;;8.17;;
29026;SDS011;16120;48.608;9.092;2023-10-31T21:59:16;111.67;;;8.00;;
29026;SDS011;16120;48.608;9.092;2023-10-31T22:03:13;111.10;;;8.00;;
29026;SDS011;16120;48.608;9.092;2023-10-31T22:07:08;111.70;;;8.07;;
29026;SDS011;16120;48.608;9.092;2023-10-31T22:11:03;110.87;;;8.40;;
29026;SDS011;16120;48.608;9.092;2023-10-31T22:14:59;112.32;;;7.95;;
29026;SDS011;16120;48.608;9.092;2023-10-31T22:18:55;112.75;;;7.93;;
29026;SDS011;16120;48.608;9.092;2023-10-31T22:22:50;112.10;;;7.90;;
29026;SDS011;16120;48.608;9.092;2023-10-31T22:26:46;111.70;;;7.93;;
29026;SDS011;16120;48.608;9.092;2023-10-31T22:30:41;112.10;;;7.83;;
29026;SDS011;16120;48.608;9.092;2023-10-31T22:34:37;112.20;;;8.03;;
29026;SDS011;16120;48.608;9.092;2023-10-31T22:38:33;112.67;;;8.27;;
29026;SDS011;16120;48.608;9.092;2023-10-31T22:42:28;112.60;;;8.00;;
29026;SDS011;16120;48.608;9.092;2023-10-31T22:46:23;112.13;;;8.05;;
29026;SDS011;16120;48.608;9.092;2023-10-31T22:50:20;112.10;;;8.10;;
29026;SDS011;16120;48.608;9.092;2023-10-31T22:54:15;112.30;;;8.00;;
29026;SDS011;16120;48.608;9.092;2023-10-31T22:58:10;111.70;;;8.17;;
29026;SDS011;16120;48.608;9.092;2023-10-31T23:02:05;112.00;;;8.07;;